createdAt,value
2022-11-20T00:00:28.300Z,4.78
2022-11-20T00:02:55.699Z,4.08
2022-11-20T00:05:23.183Z,4.53
2022-11-20T00:07:50.595Z,4.66
2022-11-20T00:10:18.093Z,4.50
2022-11-20T00:12:46.855Z,4.72
2022-11-20T00:15:14.267Z,5.05
2022-11-20T00:17:41.679Z,4.97
2022-11-20T00:20:10.607Z,4.97
2022-11-20T00:22:38.106Z,4.31
2022-11-20T00:25:06.149Z,4.51
2022-11-20T00:27:33.536Z,4.62
2022-11-20T00:30:02.385Z,4.60
2022-11-20T00:32:29.812Z,4.54
2022-11-20T00:34:57.196Z,4.68
2022-11-20T00:37:24.647Z,4.67
2022-11-20T00:39:52.075Z,4.71
2022-11-20T00:42:19.572Z,4.68
2022-11-20T00:44:46.935Z,4.79
2022-11-20T00:47:15.731Z,4.70
2022-11-20T00:49:43.235Z,4.92
2022-11-20T00:52:10.785Z,4.46
2022-11-20T00:54:38.303Z,4.42
2022-11-20T00:57:05.666Z,4.72
2022-11-20T00:59:33.045Z,4.62
2022-11-20T01:02:00.472Z,4.89
2022-11-20T01:04:29.195Z,4.78
2022-11-20T01:06:56.632Z,4.44
2022-11-20T01:09:24.291Z,4.52
2022-11-20T01:11:51.813Z,4.36
2022-11-20T01:14:21.210Z,4.73
2022-11-20T01:16:50.971Z,4.29
2022-11-20T01:19:20.574Z,4.41
2022-11-20T01:21:51.416Z,4.41
2022-11-20T01:24:20.263Z,4.54
2022-11-20T01:26:49.939Z,4.30
2022-11-20T01:29:20.423Z,4.64
2022-11-20T01:31:48.293Z,4.24
2022-11-20T01:34:18.204Z,4.62
2022-11-20T01:36:46.679Z,4.73
2022-11-20T01:39:18.474Z,4.73
2022-11-20T01:42:09.393Z,4.28
2022-11-20T01:44:53.473Z,3.98
2022-11-20T01:47:26.006Z,4.27
2022-11-20T01:49:58.551Z,4.34
2022-11-20T01:52:33.308Z,4.09
2022-11-20T01:55:05.872Z,4.02
2022-11-20T01:57:36.106Z,4.16
2022-11-20T02:00:07.817Z,4.52
2022-11-20T02:02:36.014Z,4.51
2022-11-20T02:05:12.461Z,3.38
2022-11-20T02:07:40.631Z,3.54
2022-11-20T02:10:09.758Z,3.99
2022-11-20T02:12:54.823Z,4.24
2022-11-20T02:15:26.199Z,3.92
2022-11-20T02:17:56.515Z,3.94
2022-11-20T02:20:23.919Z,3.80
2022-11-20T02:22:58.071Z,3.61
2022-11-20T02:25:29.660Z,4.06
2022-11-20T02:27:57.841Z,4.39
2022-11-20T02:30:25.672Z,3.60
2022-11-20T02:32:53.433Z,4.41
2022-11-20T02:35:43.880Z,4.24
2022-11-20T02:38:12.433Z,4.34
2022-11-20T02:40:41.167Z,3.96
2022-11-20T02:43:09.896Z,3.83
2022-11-20T02:45:37.447Z,3.92
2022-11-20T02:48:04.889Z,4.38
2022-11-20T02:50:32.371Z,4.13
2022-11-20T02:52:59.762Z,3.81
2022-11-20T02:55:27.231Z,4.24
2022-11-20T02:57:55.940Z,4.05
2022-11-20T03:00:23.680Z,4.36
2022-11-20T03:02:51.080Z,4.42
2022-11-20T03:05:18.507Z,4.26
2022-11-20T03:07:46.333Z,4.42
2022-11-20T03:10:13.835Z,4.33
2022-11-20T03:12:41.205Z,4.16
2022-11-20T03:15:11.339Z,3.70
2022-11-20T03:17:38.766Z,4.49
2022-11-20T03:20:07.634Z,4.57
2022-11-20T03:22:35.084Z,4.80
2022-11-20T03:25:02.523Z,4.84
2022-11-20T03:27:34.045Z,4.63
2022-11-20T03:30:01.431Z,4.52
2022-11-20T03:32:30.168Z,4.73
2022-11-20T03:34:57.594Z,4.50
2022-11-20T03:37:25.073Z,4.58
2022-11-20T03:39:52.464Z,3.92
2022-11-20T03:42:37.456Z,4.04
2022-11-20T03:45:05.468Z,4.28
2022-11-20T03:47:34.213Z,4.39
2022-11-20T03:50:01.674Z,4.24
2022-11-20T03:52:29.081Z,4.09
2022-11-20T03:54:56.523Z,4.07
2022-11-20T03:57:23.958Z,4.00
2022-11-20T03:59:51.382Z,4.01
2022-11-20T04:02:18.834Z,3.38
2022-11-20T04:04:47.602Z,3.17
2022-11-20T04:07:15.155Z,3.51
2022-11-20T04:09:42.602Z,4.03
2022-11-20T04:12:10.090Z,4.18
2022-11-20T04:14:37.824Z,3.47
2022-11-20T04:17:05.774Z,3.99
2022-11-20T04:19:33.179Z,4.46
2022-11-20T04:22:01.927Z,4.05
2022-11-20T04:24:29.339Z,3.96
2022-11-20T04:26:56.725Z,4.20
2022-11-20T04:29:24.257Z,4.28
2022-11-20T04:31:51.779Z,4.03
2022-11-20T04:34:19.203Z,4.02
2022-11-20T04:36:46.604Z,3.50
2022-11-20T04:39:16.368Z,4.02
2022-11-20T04:41:43.996Z,3.88
2022-11-20T04:44:11.466Z,4.02
2022-11-20T04:46:41.198Z,3.54
2022-11-20T04:49:09.459Z,3.44
2022-11-20T04:51:37.074Z,3.56
2022-11-20T04:54:04.830Z,3.50
2022-11-20T04:56:33.547Z,3.59
2022-11-20T04:59:02.786Z,3.38
2022-11-20T05:01:30.525Z,3.75
2022-11-20T05:03:57.948Z,3.92
2022-11-20T05:06:25.331Z,4.18
2022-11-20T05:08:53.223Z,3.31
2022-11-20T05:11:23.000Z,3.41
2022-11-20T05:13:53.284Z,4.09
2022-11-20T05:16:23.000Z,3.19
2022-11-20T05:18:51.153Z,3.75
2022-11-20T05:21:19.534Z,3.83
2022-11-20T05:23:47.589Z,4.03
2022-11-20T05:26:17.354Z,4.00
2022-11-20T05:28:44.801Z,3.83
2022-11-20T05:31:15.062Z,4.13
2022-11-20T05:33:43.610Z,4.29
2022-11-20T05:36:11.757Z,4.19
2022-11-20T05:38:39.454Z,4.30
2022-11-20T05:41:07.697Z,4.17
2022-11-20T05:43:36.052Z,4.18
2022-11-20T05:46:03.877Z,4.35
2022-11-20T05:48:35.185Z,4.36
2022-11-20T05:51:04.531Z,4.11
2022-11-20T05:53:31.947Z,4.37
2022-11-20T05:56:00.340Z,4.16
2022-11-20T05:58:28.595Z,4.11
2022-11-20T06:00:56.319Z,4.27
2022-11-20T06:03:23.690Z,4.27
2022-11-20T06:05:52.452Z,4.20
2022-11-20T06:08:19.965Z,4.22
2022-11-20T06:10:47.426Z,3.58
2022-11-20T06:13:14.833Z,2.90
2022-11-20T06:15:42.252Z,3.93
2022-11-20T06:18:09.641Z,3.37
2022-11-20T06:20:41.915Z,3.48
2022-11-20T06:23:11.043Z,3.14
2022-11-20T06:25:39.631Z,4.09
2022-11-20T06:28:07.001Z,3.40
2022-11-20T06:30:34.881Z,3.79
2022-11-20T06:33:02.273Z,3.52
2022-11-20T06:35:29.706Z,4.28
2022-11-20T06:37:57.672Z,4.18
2022-11-20T06:40:26.426Z,4.63
2022-11-20T06:42:55.606Z,4.29
2022-11-20T06:45:23.150Z,4.07
2022-11-20T06:47:50.551Z,3.31
2022-11-20T06:50:18.152Z,4.10
2022-11-20T06:52:45.544Z,4.47
2022-11-20T06:55:12.923Z,4.48
2022-11-20T06:57:41.626Z,4.59
2022-11-20T07:00:10.154Z,3.59
2022-11-20T07:02:37.577Z,4.17
2022-11-20T07:05:05.675Z,4.31
2022-11-20T07:07:33.169Z,4.23
2022-11-20T07:10:00.594Z,3.70
2022-11-20T07:12:28.446Z,4.36
2022-11-20T07:14:57.535Z,3.94
2022-11-20T07:17:24.960Z,3.64
2022-11-20T07:19:52.325Z,3.24
2022-11-20T07:22:22.524Z,4.25
2022-11-20T07:24:50.177Z,4.47
2022-11-20T07:27:17.571Z,4.69
2022-11-20T07:29:44.972Z,4.65
2022-11-20T07:32:13.707Z,4.38
2022-11-20T07:34:41.065Z,4.05
2022-11-20T07:37:10.452Z,3.69
2022-11-20T07:39:38.101Z,4.11
2022-11-20T07:42:05.591Z,4.04
2022-11-20T07:44:32.997Z,3.78
2022-11-20T07:47:00.453Z,4.42
2022-11-20T07:49:29.237Z,4.59
2022-11-20T07:52:00.430Z,4.83
2022-11-20T07:54:30.598Z,4.52
2022-11-20T07:56:57.982Z,4.80
2022-11-20T07:59:25.557Z,4.64
2022-11-20T08:01:52.921Z,4.25
2022-11-20T08:04:20.317Z,4.64
2022-11-20T08:06:49.324Z,4.73
2022-11-20T08:09:16.718Z,4.68
2022-11-20T08:12:01.932Z,4.82
2022-11-20T08:14:29.335Z,4.89
2022-11-20T08:16:56.715Z,4.54
2022-11-20T08:19:24.223Z,4.73
2022-11-20T08:21:53.257Z,4.81
2022-11-20T08:24:20.667Z,4.76
2022-11-20T08:26:48.038Z,4.90
2022-11-20T08:29:15.475Z,4.57
2022-11-20T08:31:42.890Z,4.05
2022-11-20T08:34:12.872Z,4.64
2022-11-20T08:36:42.467Z,4.67
2022-11-20T08:39:13.963Z,5.02
2022-11-20T08:41:41.333Z,4.60
2022-11-20T08:44:09.726Z,4.95
2022-11-20T08:46:38.741Z,4.93
2022-11-20T08:49:06.939Z,3.84
2022-11-20T08:51:34.624Z,4.28
2022-11-20T08:54:02.408Z,4.73
2022-11-20T08:56:31.664Z,4.78
2022-11-20T09:01:47.702Z,8.73
2022-11-20T09:04:15.502Z,11.75
2022-11-20T09:06:43.094Z,11.42
2022-11-20T09:09:10.480Z,9.78
2022-11-20T09:11:39.197Z,7.60
2022-11-20T09:14:06.632Z,6.54
2022-11-20T09:16:34.106Z,5.77
2022-11-20T09:19:28.648Z,5.45
2022-11-20T09:21:49.345Z,5.02
2022-11-20T09:24:16.719Z,5.60
2022-11-20T09:26:45.530Z,5.53
2022-11-20T09:29:12.917Z,5.39
2022-11-20T09:31:40.358Z,5.22
2022-11-20T09:34:07.809Z,5.32
2022-11-20T09:36:35.270Z,5.39
2022-11-20T09:39:02.883Z,5.49
2022-11-20T09:42:06.401Z,5.68
2022-11-20T09:44:47.180Z,5.64
2022-11-20T09:47:24.636Z,5.35
2022-11-20T09:50:04.034Z,5.11
2022-11-20T09:52:39.555Z,5.55
2022-11-20T09:55:10.696Z,5.00
2022-11-20T09:57:42.387Z,5.47
2022-11-20T10:00:13.998Z,5.70
2022-11-20T10:02:47.667Z,5.66
2022-11-20T10:05:20.344Z,5.84
2022-11-20T10:07:56.137Z,5.89
2022-11-20T10:10:32.889Z,5.84
2022-11-20T10:13:16.348Z,5.61
2022-11-20T10:15:55.255Z,5.17
2022-11-20T10:18:35.484Z,5.88
2022-11-20T10:21:11.598Z,5.23
2022-11-20T10:24:26.181Z,5.81
2022-11-20T10:27:05.650Z,5.88
2022-11-20T10:29:36.822Z,5.61
2022-11-20T10:32:09.568Z,5.90
2022-11-20T10:34:48.795Z,6.06
2022-11-20T10:37:21.005Z,6.16
2022-11-20T10:39:56.074Z,5.99
2022-11-20T10:42:30.931Z,5.68
2022-11-20T10:45:13.253Z,5.90
2022-11-20T10:47:40.642Z,6.00
2022-11-20T10:50:22.536Z,5.83
2022-11-20T10:52:57.894Z,6.03
2022-11-20T10:55:34.813Z,5.81
2022-11-20T10:58:11.906Z,6.24
2022-11-20T11:00:40.758Z,6.35
2022-11-20T11:03:22.522Z,6.46
2022-11-20T11:05:56.003Z,6.39
2022-11-20T11:08:23.626Z,6.38
2022-11-20T11:10:55.688Z,6.33
2022-11-20T11:13:24.146Z,6.17
2022-11-20T11:15:53.484Z,5.67
2022-11-20T11:18:28.352Z,5.92
2022-11-20T11:20:57.465Z,6.15
2022-11-20T11:23:32.746Z,6.29
2022-11-20T11:26:01.860Z,5.63
2022-11-20T11:28:29.854Z,6.12
2022-11-20T11:30:58.647Z,5.64
2022-11-20T11:33:28.302Z,6.13
2022-11-20T11:35:59.076Z,6.08
2022-11-20T11:38:32.655Z,5.45
2022-11-20T11:41:00.832Z,4.44
2022-11-20T11:44:03.993Z,4.81
2022-11-20T11:46:35.535Z,5.05
2022-11-20T11:49:14.502Z,5.03
2022-11-20T11:51:52.312Z,5.34
2022-11-20T11:54:25.103Z,5.58
2022-11-20T11:56:53.574Z,5.23
2022-11-20T11:59:29.093Z,5.39
2022-11-20T12:02:03.946Z,5.07
2022-11-20T12:07:18.244Z,5.21
2022-11-20T12:09:54.098Z,4.59
2022-11-20T12:12:26.709Z,4.74
2022-11-20T12:14:57.205Z,5.37
2022-11-20T12:17:26.087Z,5.27
2022-11-20T12:19:53.684Z,5.11
2022-11-20T12:22:32.734Z,5.41
2022-11-20T12:25:06.036Z,5.75
2022-11-20T12:27:50.523Z,5.46
2022-11-20T12:30:20.663Z,5.78
2022-11-20T12:33:19.917Z,5.62
2022-11-20T12:36:01.454Z,5.61
2022-11-20T12:38:44.211Z,5.52
2022-11-20T12:41:38.419Z,5.80
2022-11-20T12:44:37.615Z,5.87
2022-11-20T12:47:18.226Z,5.24
2022-11-20T12:49:52.582Z,5.93
2022-11-20T12:52:34.095Z,5.97
2022-11-20T12:55:15.005Z,5.88
2022-11-20T12:57:50.722Z,6.11
2022-11-20T13:00:21.234Z,5.59
2022-11-20T13:03:08.788Z,5.49
2022-11-20T13:05:47.278Z,5.97
2022-11-20T13:08:22.367Z,6.08
2022-11-20T13:10:58.548Z,6.33
2022-11-20T13:13:32.982Z,5.77
2022-11-20T13:16:06.542Z,5.88
2022-11-20T13:18:40.165Z,5.68
2022-11-20T13:21:17.549Z,5.09
2022-11-20T13:23:44.981Z,5.35
2022-11-20T13:26:24.594Z,5.50
2022-11-20T13:29:04.454Z,5.59
2022-11-20T13:31:34.334Z,5.61
2022-11-20T13:34:05.104Z,5.43
2022-11-20T13:36:35.925Z,5.16
2022-11-20T13:39:04.133Z,4.83
2022-11-20T13:41:36.158Z,5.37
2022-11-20T13:44:13.051Z,4.89
2022-11-20T13:46:44.300Z,4.31
2022-11-20T13:49:20.111Z,4.15
2022-11-20T13:51:51.540Z,4.79
2022-11-20T13:54:52.621Z,5.37
2022-11-20T13:57:38.698Z,5.44
2022-11-20T14:00:14.031Z,5.41
2022-11-20T14:02:42.541Z,5.44
2022-11-20T14:05:21.511Z,5.27
2022-11-20T14:07:52.782Z,5.06
2022-11-20T14:10:29.931Z,4.83
2022-11-20T14:12:59.355Z,4.56
2022-11-20T14:15:28.950Z,4.16
2022-11-20T14:17:56.707Z,4.11
2022-11-20T14:20:27.381Z,4.37
2022-11-20T14:22:57.306Z,4.35
2022-11-20T14:25:28.097Z,4.32
2022-11-20T14:27:57.406Z,4.64
2022-11-20T14:30:26.724Z,4.61
2022-11-20T14:32:57.506Z,4.83
2022-11-20T14:35:27.998Z,4.50
2022-11-20T14:37:57.654Z,4.68
2022-11-20T14:40:34.784Z,4.57
2022-11-20T14:43:02.247Z,4.76
2022-11-20T14:45:30.187Z,5.00
2022-11-20T14:47:59.868Z,4.91
2022-11-20T14:50:29.386Z,5.06
2022-11-20T14:53:00.378Z,4.69
2022-11-20T14:55:29.778Z,4.90
2022-11-20T14:57:58.001Z,4.87
2022-11-20T15:00:26.286Z,4.90
2022-11-20T15:02:54.361Z,4.57
2022-11-20T15:05:24.357Z,5.05
2022-11-20T15:07:54.184Z,4.95
2022-11-20T15:10:25.420Z,5.22
2022-11-20T15:12:54.757Z,4.75
2022-11-20T15:15:26.927Z,4.72
2022-11-20T15:17:54.888Z,4.37
2022-11-20T15:20:25.952Z,4.97
2022-11-20T15:22:53.349Z,4.71
2022-11-20T15:25:21.508Z,4.30
2022-11-20T15:27:54.972Z,4.40
2022-11-20T15:30:23.429Z,4.45
2022-11-20T15:32:50.820Z,4.70
2022-11-20T15:35:18.510Z,4.56
2022-11-20T15:37:45.933Z,4.97
2022-11-20T15:40:14.117Z,5.15
2022-11-20T15:43:02.379Z,5.08
2022-11-20T15:45:35.468Z,5.03
2022-11-20T15:48:03.293Z,5.11
2022-11-20T15:50:37.997Z,4.00
2022-11-20T15:53:06.062Z,3.90
2022-11-20T15:55:33.588Z,4.72
2022-11-20T15:58:00.975Z,4.77
2022-11-20T16:00:28.470Z,4.94
2022-11-20T16:02:57.177Z,4.92
2022-11-20T16:05:25.011Z,4.11
2022-11-20T16:07:52.912Z,4.02
2022-11-20T16:10:20.369Z,3.84
2022-11-20T16:13:05.362Z,4.25
2022-11-20T16:15:48.825Z,4.08
2022-11-20T16:18:21.457Z,3.53
2022-11-20T16:20:53.797Z,3.23
2022-11-20T16:23:22.244Z,3.26
2022-11-20T16:25:50.199Z,3.69
2022-11-20T16:28:19.339Z,3.92
2022-11-20T16:30:47.182Z,4.09
2022-11-20T16:33:16.139Z,3.23
2022-11-20T16:35:45.362Z,3.53
2022-11-20T16:38:12.815Z,3.60
2022-11-20T16:40:40.266Z,3.43
2022-11-20T16:43:11.493Z,4.01
2022-11-20T16:45:43.485Z,4.20
2022-11-20T16:48:15.419Z,3.97
2022-11-20T16:50:52.262Z,3.08
2022-11-20T16:53:20.766Z,3.94
2022-11-20T16:55:48.322Z,3.78
2022-11-20T16:58:16.027Z,4.36
2022-11-20T17:00:49.960Z,4.50
2022-11-20T17:03:18.891Z,4.14
2022-11-20T17:05:46.333Z,4.16
2022-11-20T17:08:15.030Z,4.11
2022-11-20T17:10:42.752Z,4.18
2022-11-20T17:13:10.147Z,4.25
2022-11-20T17:15:37.536Z,4.77
2022-11-20T17:18:05.171Z,4.95
2022-11-20T17:20:32.615Z,4.68
2022-11-20T17:22:59.987Z,4.75
2022-11-20T17:25:28.710Z,4.69
2022-11-20T17:27:56.077Z,4.41
2022-11-20T17:30:23.449Z,4.78
2022-11-20T17:32:50.921Z,4.61
2022-11-20T17:35:18.296Z,3.92
2022-11-20T17:37:45.688Z,4.68
2022-11-20T17:40:13.372Z,4.29
2022-11-20T17:42:42.089Z,4.92
2022-11-20T17:45:09.631Z,4.90
2022-11-20T17:47:37.227Z,4.46
2022-11-20T17:50:04.903Z,5.11
2022-11-20T17:52:32.376Z,4.82
2022-11-20T17:54:59.755Z,4.45
2022-11-20T17:57:44.632Z,4.23
2022-11-20T18:00:16.479Z,3.88
2022-11-20T18:02:43.849Z,4.70
2022-11-20T18:05:11.423Z,4.01
2022-11-20T18:07:41.812Z,4.59
2022-11-20T18:10:10.926Z,4.69
2022-11-20T18:12:38.372Z,3.63
2022-11-20T18:15:06.282Z,4.59
2022-11-20T18:17:35.259Z,4.37
2022-11-20T18:22:50.078Z,4.36
2022-11-20T18:25:17.490Z,3.28
2022-11-20T18:27:45.232Z,3.96
2022-11-20T18:30:14.077Z,4.57
2022-11-20T18:32:42.868Z,4.52
2022-11-20T18:35:10.745Z,3.95
2022-11-20T18:37:38.098Z,4.16
2022-11-20T18:40:06.639Z,4.06
2022-11-20T18:42:51.824Z,3.45
2022-11-20T18:45:19.241Z,3.72
2022-11-20T18:47:47.958Z,3.85
2022-11-20T18:50:15.334Z,4.18
2022-11-20T18:52:44.567Z,3.68
2022-11-20T18:55:12.991Z,3.70
2022-11-20T18:57:40.410Z,3.59
2022-11-20T19:00:09.920Z,3.95
2022-11-20T19:02:42.994Z,4.30
2022-11-20T19:05:12.417Z,4.25
2022-11-20T19:07:40.272Z,4.30
2022-11-20T19:10:08.572Z,4.29
2022-11-20T19:12:35.987Z,4.01
2022-11-20T19:15:03.621Z,3.88
2022-11-20T19:17:31.074Z,3.88
2022-11-20T19:19:58.570Z,4.04
2022-11-20T19:22:27.330Z,4.08
2022-11-20T19:24:54.719Z,2.87
2022-11-20T19:27:22.170Z,3.53
2022-11-20T19:29:49.829Z,3.47
2022-11-20T19:32:17.263Z,3.69
2022-11-20T19:34:44.692Z,4.19
2022-11-20T19:37:12.140Z,4.19
2022-11-20T19:39:40.868Z,4.30
2022-11-20T19:42:08.304Z,4.08
2022-11-20T19:44:35.838Z,4.20
2022-11-20T19:47:08.954Z,3.96
2022-11-20T19:49:40.055Z,4.08
2022-11-20T19:52:07.450Z,3.92
2022-11-20T19:54:34.931Z,4.24
2022-11-20T19:57:03.650Z,4.42
2022-11-20T19:59:31.125Z,4.39
2022-11-20T20:01:58.574Z,4.46
2022-11-20T20:04:26.119Z,3.94
2022-11-20T20:06:53.497Z,4.24
2022-11-20T20:09:23.596Z,4.20
2022-11-20T20:11:51.229Z,4.27
2022-11-20T20:14:20.044Z,4.10
2022-11-20T20:16:47.766Z,4.02
2022-11-20T20:19:16.419Z,4.23
2022-11-20T20:21:44.027Z,4.29
2022-11-20T20:24:12.946Z,4.24
2022-11-20T20:26:40.756Z,3.82
2022-11-20T20:29:08.181Z,3.96
2022-11-20T20:31:36.923Z,3.87
2022-11-20T20:34:05.917Z,3.66
2022-11-20T20:36:33.557Z,3.82
2022-11-20T20:39:02.615Z,3.94
2022-11-20T20:41:30.090Z,4.14
2022-11-20T20:44:15.251Z,3.66
2022-11-20T20:46:43.984Z,3.42
2022-11-20T20:49:11.351Z,3.47
2022-11-20T20:51:38.753Z,3.66
2022-11-20T20:54:06.514Z,3.45
2022-11-20T20:56:33.917Z,3.61
2022-11-20T20:59:01.414Z,3.64
2022-11-20T21:01:29.615Z,3.71
2022-11-20T21:03:58.999Z,3.84
2022-11-20T21:06:26.634Z,3.83
2022-11-20T21:08:55.821Z,3.58
2022-11-20T21:11:23.322Z,3.40
2022-11-20T21:13:50.840Z,3.43
2022-11-20T21:16:20.645Z,2.18
2022-11-20T21:18:48.045Z,2.78
2022-11-20T21:21:35.115Z,2.78
2022-11-20T21:24:02.814Z,3.26
2022-11-20T21:26:30.251Z,3.28
2022-11-20T21:28:57.895Z,3.03
2022-11-20T21:31:27.497Z,2.83
2022-11-20T21:33:56.397Z,2.81
2022-11-20T21:36:26.812Z,3.17
2022-11-20T21:38:55.522Z,2.97
2022-11-20T21:41:24.382Z,2.64
2022-11-20T21:44:23.605Z,1.88
2022-11-20T21:46:41.212Z,2.95
2022-11-20T21:49:08.691Z,3.19
2022-11-20T21:51:37.442Z,3.07
2022-11-20T21:54:05.108Z,2.98
2022-11-20T21:56:32.515Z,3.04
2022-11-20T21:59:00.502Z,3.05
2022-11-20T22:01:30.219Z,3.02
2022-11-20T22:03:59.223Z,3.14
2022-11-20T22:06:27.997Z,2.85
2022-11-20T22:08:56.715Z,3.10
2022-11-20T22:11:24.136Z,3.18
2022-11-20T22:14:09.017Z,3.06
2022-11-20T22:16:37.534Z,2.73
2022-11-20T22:19:06.361Z,3.02
2022-11-20T22:21:34.359Z,2.73
2022-11-20T22:24:03.566Z,3.00
2022-11-20T22:26:40.008Z,2.82
2022-11-20T22:29:08.902Z,2.20
2022-11-20T22:31:36.320Z,2.42
2022-11-20T22:34:04.513Z,2.90
2022-11-20T22:36:33.024Z,2.84
2022-11-20T22:39:05.179Z,2.85
2022-11-20T22:41:33.107Z,2.88
2022-11-20T22:44:01.966Z,2.78
2022-11-20T22:46:31.913Z,2.74
2022-11-20T22:49:01.168Z,2.74
2022-11-20T22:51:29.988Z,2.55
2022-11-20T22:53:57.672Z,1.96
2022-11-20T22:56:26.727Z,2.50
2022-11-20T22:58:55.234Z,2.65
2022-11-20T23:01:24.667Z,2.58
2022-11-20T23:03:53.963Z,2.66
2022-11-20T23:06:22.453Z,2.70
2022-11-20T23:08:50.926Z,2.61
2022-11-20T23:11:20.775Z,2.72
2022-11-20T23:13:54.115Z,2.57
2022-11-20T23:16:21.531Z,2.81
2022-11-20T23:18:48.968Z,2.94
2022-11-20T23:21:18.844Z,2.88
2022-11-20T23:23:49.684Z,3.50
2022-11-20T23:26:18.303Z,2.96
2022-11-20T23:28:46.006Z,2.81
2022-11-20T23:31:16.159Z,2.96
2022-11-20T23:33:45.844Z,2.85
2022-11-20T23:36:13.999Z,2.40
2022-11-20T23:38:42.138Z,3.31
2022-11-20T23:41:09.782Z,3.21
2022-11-20T23:43:37.187Z,2.95
2022-11-20T23:46:05.289Z,3.70
2022-11-20T23:48:36.235Z,2.82
2022-11-20T23:51:04.812Z,2.34
2022-11-20T23:53:32.732Z,2.67
2022-11-20T23:56:02.793Z,3.12
2022-11-20T23:58:32.676Z,3.59
